Time;durP1;ratioP1;P1;durP2;ratioP2;P2;SDS_P1;SDS_P2;PMS_P1;PMS_P2;Temp;Humidity;BMP_temperature;BMP_pressure;BME280_temperature;BME280_humidity;BME280_pressure;Samples;Min_cycle;Max_cycle;Signal;HPM_P1;HPM_P2
2024/03/31 00:02:03;;;;;;;337.77;94.67;;;;;12.00;95699.00;;;;5023094;28;20228;-81
2024/03/31 00:04:51;;;;;;;346.80;100.83;;;;;12.00;95707.00;;;;5022989;28;20208;-81
2024/03/31 00:07:38;;;;;;;344.00;100.97;;;;;12.00;95704.00;;;;5014144;28;20733;-82
2024/03/31 00:10:26;;;;;;;354.70;106.13;;;;;12.10;95706.00;;;;5015934;28;20580;-81
2024/03/31 00:13:15;;;;;;;347.27;106.90;;;;;12.00;95692.00;;;;5022450;28;20756;-82
2024/03/31 00:16:02;;;;;;;347.13;108.23;;;;;12.00;95694.00;;;;5007334;28;20539;-84
2024/03/31 00:18:51;;;;;;;344.67;95.70;;;;;11.90;95698.00;;;;5017121;28;20674;-83
2024/03/31 00:21:38;;;;;;;343.53;96.07;;;;;12.10;95699.00;;;;5017668;28;20237;-82
2024/03/31 00:24:27;;;;;;;355.03;105.20;;;;;11.90;95698.00;;;;5021594;28;20208;-80
2024/03/31 00:27:14;;;;;;;340.87;96.27;;;;;11.70;95699.00;;;;5026767;28;20266;-81
2024/03/31 00:30:03;;;;;;;338.70;93.00;;;;;11.40;95692.00;;;;5015572;28;20209;-82
2024/03/31 00:32:50;;;;;;;343.57;96.97;;;;;11.40;95701.00;;;;5020454;28;20201;-82
2024/03/31 00:35:40;;;;;;;345.47;103.30;;;;;11.20;95693.00;;;;5020493;28;20228;-82
2024/03/31 00:38:27;;;;;;;349.27;106.77;;;;;11.00;95687.00;;;;5013559;28;20257;-81
2024/03/31 00:41:15;;;;;;;348.87;101.83;;;;;11.30;95699.00;;;;5025162;28;20249;-81
2024/03/31 00:44:03;;;;;;;340.43;100.03;;;;;11.40;95719.00;;;;5019499;28;20266;-84
2024/03/31 00:46:52;;;;;;;350.43;103.07;;;;;11.50;95708.00;;;;5011478;28;20214;-82
2024/03/31 00:49:39;;;;;;;343.80;99.60;;;;;11.60;95714.00;;;;5011408;28;20210;-81
2024/03/31 00:52:28;;;;;;;356.93;107.90;;;;;11.60;95706.00;;;;5024852;28;20234;-82
2024/03/31 00:55:16;;;;;;;341.53;99.37;;;;;11.60;95706.00;;;;5024139;28;20209;-84
2024/03/31 00:58:04;;;;;;;345.47;98.83;;;;;11.70;95700.00;;;;5024504;28;20263;-81
2024/03/31 01:00:51;;;;;;;344.00;96.43;;;;;11.30;95693.00;;;;5014023;28;20891;-82
2024/03/31 01:03:40;;;;;;;342.57;96.40;;;;;10.70;95694.00;;;;5018023;28;20201;-82
2024/03/31 01:06:28;;;;;;;350.90;101.40;;;;;11.30;95695.00;;;;5023240;28;20209;-83
2024/03/31 01:09:17;;;;;;;342.90;95.53;;;;;11.50;95700.00;;;;5024347;28;20216;-84
2024/03/31 01:12:05;;;;;;;344.67;100.83;;;;;10.80;95699.00;;;;5015212;28;20715;-83
2024/03/31 01:14:53;;;;;;;339.97;94.63;;;;;10.80;95688.00;;;;5011711;28;20699;-82
2024/03/31 01:17:41;;;;;;;342.27;99.60;;;;;10.90;95688.00;;;;5023596;28;20410;-85
2024/03/31 01:20:28;;;;;;;344.60;100.87;;;;;10.70;95697.00;;;;5021982;28;20208;-84
2024/03/31 01:23:18;;;;;;;279.40;105.60;;;;;11.00;95691.00;;;;5019410;28;20204;-83
2024/03/31 01:26:06;;;;;;;280.90;104.87;;;;;11.20;95700.00;;;;5018406;28;20270;-82
2024/03/31 01:28:55;;;;;;;254.67;109.17;;;;;11.00;95686.00;;;;5015007;28;20571;-83
2024/03/31 01:31:42;;;;;;;232.17;104.23;;;;;11.10;95680.00;;;;5018939;28;20221;-82
2024/03/31 01:34:30;;;;;;;252.77;112.60;;;;;10.80;95677.00;;;;5018064;28;20208;-82
2024/03/31 01:37:17;;;;;;;226.43;100.53;;;;;10.70;95688.00;;;;5021073;28;20642;-82
2024/03/31 01:40:06;;;;;;;234.83;105.07;;;;;10.90;95671.00;;;;5023396;28;20220;-83
2024/03/31 01:42:55;;;;;;;219.10;100.90;;;;;11.00;95660.00;;;;5013112;28;20228;-83
2024/03/31 01:45:43;;;;;;;219.17;103.60;;;;;10.50;95668.00;;;;5015880;28;20627;-83
2024/03/31 01:48:30;;;;;;;235.37;110.63;;;;;10.50;95670.00;;;;5023943;28;20201;-84
2024/03/31 01:51:18;;;;;;;310.37;105.07;;;;;10.80;95678.00;;;;5019850;28;20229;-83
2024/03/31 01:54:05;;;;;;;343.47;96.30;;;;;10.60;95677.00;;;;5018985;28;20671;-83
2024/03/31 01:56:53;;;;;;;340.57;92.70;;;;;10.50;95673.00;;;;5016050;28;20207;-83
2024/03/31 01:59:42;;;;;;;333.63;101.80;;;;;11.20;95667.00;;;;5013552;28;20744;-84
2024/03/31 02:02:30;;;;;;;221.37;102.77;;;;;11.00;95675.00;;;;5010340;28;20244;-85
2024/03/31 02:05:17;;;;;;;211.87;100.87;;;;;11.20;95692.00;;;;5020186;28;20280;-82
2024/03/31 02:08:05;;;;;;;304.60;100.33;;;;;11.10;95695.00;;;;5017644;28;20213;-83
2024/03/31 02:10:53;;;;;;;319.97;102.13;;;;;11.20;95698.00;;;;5018675;28;20221;-85
2024/03/31 02:13:41;;;;;;;342.63;101.43;;;;;11.40;95704.00;;;;5023222;28;20205;-85
2024/03/31 02:16:29;;;;;;;350.70;101.17;;;;;11.40;95704.00;;;;5018104;28;20646;-82
2024/03/31 02:19:17;;;;;;;350.50;97.93;;;;;11.00;95694.00;;;;5018612;28;20209;-83
2024/03/31 02:22:06;;;;;;;338.77;100.70;;;;;11.00;95693.00;;;;5020421;28;20217;-84
2024/03/31 02:24:53;;;;;;;350.30;103.10;;;;;11.10;95708.00;;;;5020719;28;20215;-85
2024/03/31 02:27:41;;;;;;;342.93;96.57;;;;;11.10;95705.00;;;;5014053;28;20555;-84
2024/03/31 02:30:28;;;;;;;352.93;102.50;;;;;11.20;95701.00;;;;5015062;28;20924;-84
2024/03/31 02:33:17;;;;;;;189.70;90.27;;;;;10.90;95701.00;;;;5024821;28;20213;-84
2024/03/31 02:36:05;;;;;;;307.57;100.90;;;;;11.10;95705.00;;;;5012077;28;20231;-83
2024/03/31 02:38:53;;;;;;;313.30;103.77;;;;;11.00;95709.00;;;;5016754;28;20957;-82
2024/03/31 02:41:41;;;;;;;331.60;99.67;;;;;10.70;95704.00;;;;5015686;28;20229;-82
2024/03/31 02:44:28;;;;;;;352.73;99.87;;;;;11.10;95701.00;;;;5017220;28;20204;-84
2024/03/31 02:47:17;;;;;;;323.43;93.90;;;;;10.90;95699.00;;;;5023328;28;20212;-85
2024/03/31 02:50:05;;;;;;;191.57;96.23;;;;;10.60;95696.00;;;;5016862;28;20197;-85
2024/03/31 02:52:54;;;;;;;205.00;99.53;;;;;11.10;95694.00;;;;5014142;28;20205;-83
2024/03/31 02:55:41;;;;;;;211.17;101.33;;;;;10.90;95699.00;;;;5023941;28;20213;-83
2024/03/31 02:58:29;;;;;;;213.63;106.27;;;;;10.80;95692.00;;;;5014221;28;20223;-82
2024/03/31 03:01:16;;;;;;;259.80;107.73;;;;;11.00;95699.00;;;;5018940;28;20269;-82
2024/03/31 03:04:04;;;;;;;288.23;103.20;;;;;11.30;95685.00;;;;5014210;28;20227;-80
2024/03/31 03:06:54;;;;;;;276.43;101.70;;;;;11.40;95699.00;;;;5018980;28;20205;-84
2024/03/31 03:09:41;;;;;;;259.37;97.53;;;;;11.10;95687.00;;;;5015866;28;20202;-83
2024/03/31 03:12:29;;;;;;;277.17;111.83;;;;;11.20;95671.00;;;;5021943;28;20224;-82
2024/03/31 03:15:17;;;;;;;344.87;96.97;;;;;11.30;95676.00;;;;5023053;28;20208;-83
2024/03/31 03:18:05;;;;;;;342.20;98.43;;;;;11.00;95678.00;;;;5021022;28;20292;-82
2024/03/31 03:20:55;;;;;;;338.17;92.70;;;;;11.10;95675.00;;;;5015635;28;20229;-84
2024/03/31 03:23:45;;;;;;;349.30;99.17;;;;;10.90;95669.00;;;;5013091;28;20225;-81
2024/03/31 03:26:32;;;;;;;346.80;96.83;;;;;11.10;95673.00;;;;5015647;28;20586;-83
2024/03/31 03:29:20;;;;;;;347.70;100.97;;;;;11.20;95669.00;;;;5009712;28;20207;-81
2024/03/31 03:32:07;;;;;;;348.13;101.77;;;;;11.00;95674.00;;;;5017577;28;20300;-83
2024/03/31 03:34:55;;;;;;;345.20;101.87;;;;;11.00;95669.00;;;;5016649;28;20212;-83
2024/03/31 03:37:45;;;;;;;130.23;88.90;;;;;11.00;95675.00;;;;5016526;28;20636;-83
2024/03/31 03:40:35;;;;;;;246.93;109.63;;;;;10.80;95665.00;;;;5019574;28;20228;-83
2024/03/31 03:43:23;;;;;;;323.30;107.80;;;;;10.80;95663.00;;;;5017859;28;20220;-85
2024/03/31 03:46:11;;;;;;;273.60;103.87;;;;;10.60;95673.00;;;;5016223;28;20202;-85
2024/03/31 03:48:58;;;;;;;340.30;96.20;;;;;10.60;95671.00;;;;5010580;28;20198;-83
2024/03/31 03:51:46;;;;;;;353.03;101.67;;;;;10.60;95663.00;;;;5016459;28;20231;-83
2024/03/31 03:54:33;;;;;;;364.70;130.10;;;;;10.70;95670.00;;;;5011845;28;20683;-84
2024/03/31 03:57:24;;;;;;;325.50;124.03;;;;;10.50;95674.00;;;;5015294;28;20208;-85
2024/03/31 04:00:12;;;;;;;331.80;114.23;;;;;10.60;95673.00;;;;5013901;28;20205;-85
2024/03/31 04:03:00;;;;;;;346.97;129.03;;;;;10.60;95663.00;;;;5017547;28;20721;-83
2024/03/31 04:05:55;;;;;;;343.20;109.13;;;;;10.70;95667.00;;;;5008746;28;20201;-84
2024/03/31 04:08:42;;;;;;;342.03;100.17;;;;;10.30;95673.00;;;;5019152;28;20213;-83
2024/03/31 04:11:30;;;;;;;351.63;105.30;;;;;10.40;95675.00;;;;5017508;28;20634;-86
2024/03/31 04:14:18;;;;;;;334.40;96.43;;;;;10.40;95663.00;;;;5013645;28;20754;-84
2024/03/31 04:17:07;;;;;;;351.80;111.50;;;;;10.60;95655.00;;;;5016213;28;20232;-86
2024/03/31 04:19:54;;;;;;;306.57;99.37;;;;;10.50;95668.00;;;;5033721;28;20344;-85
2024/03/31 04:22:42;;;;;;;346.53;124.67;;;;;10.20;95670.00;;;;5016559;28;20220;-82
2024/03/31 04:25:29;;;;;;;253.13;99.10;;;;;10.20;95672.00;;;;5013538;28;20205;-82
2024/03/31 04:28:17;;;;;;;246.67;99.60;;;;;10.20;95663.00;;;;5014427;28;20203;-81
2024/03/31 04:31:07;;;;;;;247.07;101.13;;;;;10.20;95658.00;;;;5016551;28;20229;-82
2024/03/31 04:33:54;;;;;;;271.30;96.23;;;;;10.50;95653.00;;;;5013570;28;20634;-82
2024/03/31 04:36:42;;;;;;;276.87;105.03;;;;;10.60;95660.00;;;;5017358;28;20208;-82
2024/03/31 04:39:29;;;;;;;299.37;110.60;;;;;10.20;95640.00;;;;5012903;28;20212;-84
2024/03/31 04:42:17;;;;;;;298.30;102.40;;;;;9.90;95640.00;;;;5035007;28;20289;-82
2024/03/31 04:45:05;;;;;;;310.57;103.57;;;;;10.30;95614.00;;;;5039222;28;20709;-81
2024/03/31 04:47:55;;;;;;;327.73;112.43;;;;;9.80;95627.00;;;;5032843;28;20198;-81
2024/03/31 04:50:42;;;;;;;336.43;112.90;;;;;10.20;95606.00;;;;5033787;28;20225;-82
2024/03/31 04:53:30;;;;;;;136.13;84.93;;;;;9.70;95618.00;;;;5022972;28;20211;-83
2024/03/31 04:56:18;;;;;;;290.03;98.60;;;;;9.90;95614.00;;;;5010535;28;20202;-85
2024/03/31 04:59:07;;;;;;;300.63;103.63;;;;;10.00;95615.00;;;;5020622;28;20217;-83
2024/03/31 05:01:55;;;;;;;284.60;101.33;;;;;9.40;95614.00;;;;5015995;28;20225;-85
2024/03/31 05:04:44;;;;;;;259.23;99.70;;;;;9.90;95620.00;;;;5005493;28;20206;-84
2024/03/31 05:07:34;;;;;;;251.03;100.90;;;;;9.30;95616.00;;;;5013740;28;20202;-83
2024/03/31 05:10:21;;;;;;;208.67;92.87;;;;;10.10;95613.00;;;;5013585;28;20216;-83
2024/03/31 05:13:10;;;;;;;214.77;95.30;;;;;10.50;95642.00;;;;5016676;28;20525;-83
2024/03/31 05:16:01;;;;;;;215.33;97.60;;;;;10.10;95644.00;;;;5020742;28;20292;-86
2024/03/31 05:18:51;;;;;;;232.53;96.47;;;;;10.40;95649.00;;;;5018492;28;20201;-83
2024/03/31 05:21:40;;;;;;;274.80;108.80;;;;;10.30;95660.00;;;;5016745;28;20225;-83
2024/03/31 05:24:27;;;;;;;234.70;101.40;;;;;10.10;95659.00;;;;5009661;28;20707;-83
2024/03/31 05:27:15;;;;;;;218.17;98.17;;;;;9.80;95665.00;;;;5017426;28;20212;-84
2024/03/31 05:30:03;;;;;;;231.47;102.50;;;;;9.40;95660.00;;;;5019032;28;20209;-82
2024/03/31 05:32:51;;;;;;;194.77;90.67;;;;;10.20;95662.00;;;;5015606;28;20826;-83
2024/03/31 05:35:39;;;;;;;208.80;101.67;;;;;10.70;95666.00;;;;5014201;28;20583;-83
2024/03/31 05:38:29;;;;;;;230.67;106.43;;;;;10.50;95668.00;;;;5022418;28;20270;-84
2024/03/31 05:41:16;;;;;;;252.63;102.07;;;;;10.90;95667.00;;;;5019890;28;20224;-83
2024/03/31 05:44:04;;;;;;;298.73;95.30;;;;;10.70;95683.00;;;;5018897;28;20797;-83
2024/03/31 05:46:51;;;;;;;350.23;126.17;;;;;9.90;95680.00;;;;5016569;28;20255;-81
2024/03/31 05:49:39;;;;;;;331.97;107.50;;;;;10.40;95661.00;;;;5017501;28;20224;-83
2024/03/31 05:52:27;;;;;;;277.40;109.57;;;;;11.20;95661.00;;;;5014187;28;20776;-84
2024/03/31 05:55:16;;;;;;;228.20;106.20;;;;;11.60;95652.00;;;;5010511;28;20217;-84
2024/03/31 05:58:03;;;;;;;242.67;102.50;;;;;11.80;95661.00;;;;5017506;28;20209;-83
2024/03/31 06:00:52;;;;;;;293.87;113.67;;;;;11.50;95675.00;;;;5017506;28;20228;-85
2024/03/31 06:03:39;;;;;;;289.33;111.10;;;;;11.80;95668.00;;;;5012174;28;20227;-84
2024/03/31 06:06:27;;;;;;;198.43;104.57;;;;;11.30;95676.00;;;;5014610;28;20208;-83
2024/03/31 06:09:14;;;;;;;146.90;94.23;;;;;11.50;95665.00;;;;5021435;28;20220;-83
2024/03/31 06:12:04;;;;;;;141.03;94.17;;;;;12.30;95657.00;;;;5016411;28;20230;-86
2024/03/31 06:14:51;;;;;;;149.80;96.43;;;;;12.80;95661.00;;;;5018587;28;20744;-83
2024/03/31 06:17:39;;;;;;;149.33;98.40;;;;;12.50;95649.00;;;;5016325;28;20210;-84
2024/03/31 06:20:26;;;;;;;139.53;100.30;;;;;12.00;95660.00;;;;5019628;28;20205;-83
2024/03/31 06:23:15;;;;;;;140.97;100.60;;;;;13.00;95656.00;;;;5023572;28;20225;-84
2024/03/31 06:26:03;;;;;;;135.17;99.53;;;;;13.30;95645.00;;;;5016434;28;20289;-85
2024/03/31 06:28:52;;;;;;;123.27;98.40;;;;;13.40;95664.00;;;;5017760;28;20205;-83
2024/03/31 06:31:40;;;;;;;140.40;104.20;;;;;13.80;95667.00;;;;5012357;28;20225;-86
2024/03/31 06:34:28;;;;;;;152.23;113.60;;;;;14.00;95664.00;;;;5010605;28;20614;-85
2024/03/31 06:37:17;;;;;;;121.43;103.27;;;;;13.60;95682.00;;;;5016204;28;20209;-83
2024/03/31 06:40:06;;;;;;;127.70;105.20;;;;;14.20;95674.00;;;;5009974;28;20690;-85
2024/03/31 06:42:53;;;;;;;144.63;112.60;;;;;14.30;95694.00;;;;5007901;28;20625;-83
2024/03/31 06:45:43;;;;;;;166.50;124.17;;;;;14.50;95674.00;;;;5011283;28;20207;-83
2024/03/31 06:48:30;;;;;;;143.70;115.03;;;;;14.70;95688.00;;;;5010544;28;20623;-85
2024/03/31 06:51:18;;;;;;;146.07;118.00;;;;;14.90;95694.00;;;;5008831;28;20597;-86
2024/03/31 06:54:05;;;;;;;154.97;122.20;;;;;15.10;95692.00;;;;5007341;28;20209;-86
2024/03/31 06:56:53;;;;;;;168.10;130.20;;;;;15.40;95694.00;;;;5026817;28;20201;-83
2024/03/31 06:59:41;;;;;;;165.67;131.93;;;;;15.60;95683.00;;;;5011975;28;20209;-83
2024/03/31 07:02:30;;;;;;;178.40;136.57;;;;;15.70;95696.00;;;;5012136;28;20267;-84
2024/03/31 07:05:18;;;;;;;176.47;137.80;;;;;15.80;95689.00;;;;5014960;28;20213;-85
2024/03/31 07:08:06;;;;;;;175.47;136.93;;;;;15.80;95683.00;;;;5012263;28;20209;-86
2024/03/31 07:10:54;;;;;;;193.23;146.67;;;;;15.50;95699.00;;;;5009849;28;20233;-85
2024/03/31 07:13:41;;;;;;;201.10;151.10;;;;;15.80;95683.00;;;;5013844;28;20663;-85
2024/03/31 07:16:30;;;;;;;197.63;152.17;;;;;15.90;95675.00;;;;5007740;28;20654;-86
2024/03/31 07:19:18;;;;;;;200.00;150.30;;;;;16.00;95681.00;;;;5011863;28;20202;-85
2024/03/31 07:22:07;;;;;;;208.37;157.17;;;;;16.10;95676.00;;;;5005887;28;20316;-85
2024/03/31 07:24:55;;;;;;;194.40;151.57;;;;;16.10;95677.00;;;;5009475;28;20217;-86
2024/03/31 07:27:42;;;;;;;220.27;160.67;;;;;16.20;95683.00;;;;5008669;28;20205;-84
2024/03/31 07:30:30;;;;;;;218.43;161.03;;;;;16.40;95684.00;;;;5011308;28;20202;-83
2024/03/31 07:33:18;;;;;;;205.90;154.00;;;;;16.50;95664.00;;;;5011799;28;20263;-83
2024/03/31 07:36:07;;;;;;;206.33;157.47;;;;;16.60;95689.00;;;;5024556;28;20236;-85
2024/03/31 07:38:55;;;;;;;207.07;154.13;;;;;16.50;95688.00;;;;5018223;28;20201;-85
2024/03/31 07:41:42;;;;;;;232.57;168.50;;;;;17.10;95693.00;;;;5004162;28;20230;-85
2024/03/31 07:44:30;;;;;;;262.23;191.80;;;;;17.50;95705.00;;;;5015224;28;20220;-81
2024/03/31 07:47:17;;;;;;;216.93;174.17;;;;;17.30;95706.00;;;;5009965;28;20208;-85
2024/03/31 07:50:06;;;;;;;206.43;169.87;;;;;17.40;95707.00;;;;5016942;28;20800;-83
2024/03/31 07:52:54;;;;;;;208.47;170.63;;;;;17.50;95715.00;;;;5015837;28;20210;-83
2024/03/31 07:55:43;;;;;;;228.97;186.13;;;;;18.10;95704.00;;;;5011553;28;20569;-82
2024/03/31 07:58:30;;;;;;;222.67;184.50;;;;;17.70;95728.00;;;;5008434;28;20678;-84
2024/03/31 08:01:18;;;;;;;219.27;187.20;;;;;17.00;95711.00;;;;5024950;28;20216;-84
2024/03/31 08:04:05;;;;;;;222.00;189.87;;;;;18.40;95716.00;;;;5018521;28;20225;-84
2024/03/31 08:06:53;;;;;;;225.77;188.17;;;;;19.20;95711.00;;;;5018346;28;20197;-84
2024/03/31 08:09:42;;;;;;;251.47;203.60;;;;;19.70;95705.00;;;;5017160;28;20208;-85
2024/03/31 08:12:30;;;;;;;268.30;218.57;;;;;19.80;95729.00;;;;5019868;28;20232;-84
2024/03/31 08:15:17;;;;;;;272.33;221.40;;;;;20.20;95717.00;;;;5022851;28;20226;-84
2024/03/31 08:18:06;;;;;;;276.87;227.60;;;;;20.00;95723.00;;;;5028226;28;20207;-84
2024/03/31 08:20:53;;;;;;;275.17;234.90;;;;;20.20;95724.00;;;;5025751;28;20229;-83
2024/03/31 08:23:42;;;;;;;305.13;248.47;;;;;20.00;95724.00;;;;5023096;28;20226;-83
2024/03/31 08:26:30;;;;;;;300.97;251.63;;;;;19.70;95716.00;;;;5014910;28;20202;-84
2024/03/31 08:29:20;;;;;;;303.50;249.37;;;;;19.90;95721.00;;;;5019940;28;20219;-83
2024/03/31 08:32:07;;;;;;;292.90;259.47;;;;;20.10;95728.00;;;;5019954;28;20236;-83
2024/03/31 08:34:55;;;;;;;282.83;251.73;;;;;20.00;95708.00;;;;5019862;28;20579;-84
2024/03/31 08:37:42;;;;;;;292.13;255.30;;;;;20.40;95720.00;;;;5020268;28;20620;-82
2024/03/31 08:40:33;;;;;;;309.47;256.43;;;;;20.70;95709.00;;;;5017784;28;20270;-85
2024/03/31 08:43:23;;;;;;;311.37;254.50;;;;;20.80;95720.00;;;;5016580;28;20233;-85
2024/03/31 08:46:10;;;;;;;322.97;263.70;;;;;20.80;95711.00;;;;5017268;28;20279;-84
2024/03/31 08:48:58;;;;;;;333.37;273.13;;;;;20.50;95722.00;;;;5008564;28;20218;-84
2024/03/31 08:51:46;;;;;;;346.33;270.20;;;;;20.20;95720.00;;;;5016480;28;20233;-84
2024/03/31 08:54:34;;;;;;;365.97;283.37;;;;;21.00;95716.00;;;;5019358;28;20219;-84
2024/03/31 08:57:21;;;;;;;373.27;268.43;;;;;21.30;95727.00;;;;5016505;28;20209;-84
2024/03/31 09:00:12;;;;;;;409.70;279.97;;;;;21.30;95727.00;;;;5013289;28;20209;-82
2024/03/31 09:02:59;;;;;;;313.97;284.90;;;;;21.60;95722.00;;;;4996527;28;20231;-85
2024/03/31 09:05:47;;;;;;;314.43;286.83;;;;;21.70;95722.00;;;;5027600;28;20211;-82
2024/03/31 09:08:35;;;;;;;335.20;304.70;;;;;21.60;95720.00;;;;5012860;28;20201;-82
2024/03/31 09:11:23;;;;;;;325.97;296.80;;;;;21.50;95722.00;;;;5017146;28;20235;-84
2024/03/31 09:14:11;;;;;;;333.67;303.63;;;;;21.70;95737.00;;;;5012622;28;20198;-84
2024/03/31 09:16:59;;;;;;;332.27;301.47;;;;;22.00;95726.00;;;;5007618;28;20197;-83
2024/03/31 09:19:49;;;;;;;331.40;301.50;;;;;22.40;95706.00;;;;5016194;28;20295;-83
2024/03/31 09:22:37;;;;;;;352.80;320.83;;;;;22.80;95714.00;;;;5018093;28;20232;-84
2024/03/31 09:25:26;;;;;;;348.13;317.97;;;;;22.80;95726.00;;;;5020042;28;20208;-85
2024/03/31 09:28:13;;;;;;;363.20;331.13;;;;;23.10;95703.00;;;;5018859;28;20647;-82
2024/03/31 09:31:01;;;;;;;372.67;340.50;;;;;23.30;95709.00;;;;5018044;28;20698;-83
2024/03/31 09:33:50;;;;;;;374.77;342.70;;;;;23.20;95709.00;;;;5015368;28;20283;-85
2024/03/31 09:36:38;;;;;;;391.57;357.07;;;;;23.20;95700.00;;;;5016739;28;20458;-84
2024/03/31 09:39:25;;;;;;;394.80;359.77;;;;;23.20;95702.00;;;;5020593;28;20258;-82
2024/03/31 09:42:13;;;;;;;398.43;362.57;;;;;23.40;95698.00;;;;5016735;28;20225;-83
2024/03/31 09:45:01;;;;;;;400.37;366.30;;;;;23.60;95695.00;;;;5026104;28;20225;-83
2024/03/31 09:47:50;;;;;;;396.73;363.87;;;;;22.60;95691.00;;;;5019284;28;20663;-84
2024/03/31 09:50:46;;;;;;;400.53;367.97;;;;;23.40;95706.00;;;;5012348;28;20225;-82
2024/03/31 09:53:35;;;;;;;396.00;363.50;;;;;23.30;95703.00;;;;5021539;28;20632;-84
2024/03/31 09:56:28;;;;;;;395.07;362.70;;;;;23.30;95695.00;;;;5019589;28;20258;-84
2024/03/31 09:59:17;;;;;;;398.27;365.20;;;;;23.40;95688.00;;;;5015959;28;20575;-84
2024/03/31 10:02:04;;;;;;;401.27;368.67;;;;;24.00;95686.00;;;;5019644;28;20221;-84
2024/03/31 10:04:57;;;;;;;404.50;370.90;;;;;24.10;95688.00;;;;5016094;28;21017;-84
2024/03/31 10:07:46;;;;;;;421.63;386.83;;;;;24.20;95685.00;;;;5023139;28;20209;-84
2024/03/31 10:10:36;;;;;;;419.37;383.77;;;;;23.40;95678.00;;;;5018560;28;20221;-82
2024/03/31 10:13:24;;;;;;;416.50;381.27;;;;;24.00;95672.00;;;;5020705;28;20455;-84
2024/03/31 10:16:12;;;;;;;418.93;384.77;;;;;24.00;95683.00;;;;5016808;28;20206;-83
2024/03/31 10:19:00;;;;;;;432.83;397.43;;;;;24.30;95674.00;;;;5027195;28;20198;-82
2024/03/31 10:21:48;;;;;;;426.00;389.13;;;;;23.80;95682.00;;;;5023183;28;20235;-84
2024/03/31 10:24:37;;;;;;;433.00;395.83;;;;;24.10;95677.00;;;;5015596;28;20217;-82
2024/03/31 10:27:26;;;;;;;428.93;391.93;;;;;24.40;95666.00;;;;5014838;28;20594;-84
2024/03/31 10:30:13;;;;;;;432.27;395.00;;;;;24.10;95670.00;;;;5013858;28;20441;-85
2024/03/31 10:33:01;;;;;;;432.97;394.57;;;;;23.90;95660.00;;;;5015287;28;20591;-84
2024/03/31 10:35:49;;;;;;;427.70;390.17;;;;;24.10;95655.00;;;;5019445;28;20201;-84
2024/03/31 10:38:42;;;;;;;436.20;397.10;;;;;24.00;95660.00;;;;5005657;28;20592;-84
2024/03/31 10:41:31;;;;;;;432.63;394.83;;;;;24.10;95660.00;;;;5015244;28;20217;-83
2024/03/31 10:44:20;;;;;;;431.83;392.83;;;;;22.50;95653.00;;;;5011832;28;20236;-84
2024/03/31 10:47:08;;;;;;;424.87;388.30;;;;;22.80;95667.00;;;;5023256;28;20764;-86
2024/03/31 10:49:59;;;;;;;417.73;381.03;;;;;23.20;95657.00;;;;5029229;28;20620;-81
2024/03/31 10:52:48;;;;;;;415.23;379.30;;;;;23.40;95658.00;;;;5016286;28;20612;-84
2024/03/31 10:55:35;;;;;;;407.50;372.17;;;;;23.30;95648.00;;;;5025942;28;20208;-82
2024/03/31 10:58:24;;;;;;;418.83;382.13;;;;;21.90;95655.00;;;;5027152;28;20197;-81
2024/03/31 11:01:16;;;;;;;402.70;365.93;;;;;21.60;95664.00;;;;5024376;28;20247;-86
2024/03/31 11:04:18;;;;;;;393.93;358.17;;;;;22.40;95661.00;;;;5014185;28;20225;-83
2024/03/31 11:07:06;;;;;;;397.50;358.57;;;;;22.80;95663.00;;;;5005256;28;20204;-82
2024/03/31 11:09:55;;;;;;;386.20;347.50;;;;;23.00;95656.00;;;;5014979;28;20619;-85
2024/03/31 11:12:42;;;;;;;389.03;346.43;;;;;23.20;95651.00;;;;5014930;28;20208;-82
2024/03/31 11:15:33;;;;;;;398.97;336.37;;;;;23.70;95665.00;;;;5007508;28;20668;-83
2024/03/31 11:18:20;;;;;;;419.43;337.47;;;;;24.60;95649.00;;;;5013019;28;20590;-82
2024/03/31 11:21:09;;;;;;;418.03;349.93;;;;;24.20;95675.00;;;;5010014;28;20235;-84
2024/03/31 11:23:57;;;;;;;413.03;352.57;;;;;24.40;95682.00;;;;5010685;28;20230;-84
2024/03/31 11:26:45;;;;;;;429.10;371.70;;;;;24.60;95689.00;;;;5015185;28;20687;-86
2024/03/31 11:29:34;;;;;;;427.87;375.80;;;;;24.80;95654.00;;;;5010971;28;20209;-83
2024/03/31 11:32:22;;;;;;;427.87;381.00;;;;;25.30;95688.00;;;;5011561;28;20221;-82
2024/03/31 11:35:11;;;;;;;434.80;386.93;;;;;24.80;95682.00;;;;5028509;28;20208;-83
2024/03/31 11:38:11;;;;;;;442.60;394.40;;;;;24.50;95680.00;;;;5015525;28;20219;-83
2024/03/31 11:40:59;;;;;;;448.27;400.47;;;;;24.60;95682.00;;;;5013151;28;20225;-83
2024/03/31 11:43:47;;;;;;;439.67;392.30;;;;;23.30;95667.00;;;;5009118;28;20885;-83
2024/03/31 11:46:35;;;;;;;444.33;396.13;;;;;23.40;95673.00;;;;5012799;28;20276;-84
2024/03/31 11:49:24;;;;;;;438.03;389.77;;;;;23.50;95658.00;;;;5014357;28;20755;-83
2024/03/31 11:52:12;;;;;;;424.90;377.90;;;;;23.50;95650.00;;;;5008031;28;20722;-82
2024/03/31 11:55:00;;;;;;;427.33;374.83;;;;;22.20;95617.00;;;;5012209;28;20757;-84
2024/03/31 11:57:48;;;;;;;414.50;358.93;;;;;22.50;95584.00;;;;5007461;28;20213;-83
2024/03/31 12:00:36;;;;;;;425.20;355.43;;;;;22.50;95616.00;;;;5024369;28;20224;-83
2024/03/31 12:03:23;;;;;;;426.77;359.40;;;;;22.70;95635.00;;;;5010886;28;20206;-82
2024/03/31 12:06:13;;;;;;;415.67;340.23;;;;;21.60;95638.00;;;;5014395;28;20213;-83
2024/03/31 12:09:01;;;;;;;411.87;333.90;;;;;21.60;95634.00;;;;5015864;28;20214;-84
2024/03/31 12:11:49;;;;;;;447.87;345.97;;;;;21.60;95625.00;;;;5016087;28;20721;-86
2024/03/31 12:14:36;;;;;;;417.10;318.70;;;;;21.90;95591.00;;;;5013872;28;20237;-85
2024/03/31 12:17:24;;;;;;;406.13;314.23;;;;;21.70;95591.00;;;;5032020;28;20204;-87
2024/03/31 12:20:13;;;;;;;409.87;318.83;;;;;21.50;95610.00;;;;5012745;28;20828;-87
2024/03/31 12:23:02;;;;;;;402.23;307.00;;;;;22.20;95574.00;;;;5012969;28;20212;-88
2024/03/31 12:25:50;;;;;;;408.33;316.03;;;;;23.50;95574.00;;;;5019657;28;20608;-86
2024/03/31 12:28:37;;;;;;;403.90;327.23;;;;;23.40;95601.00;;;;5017038;28;20209;-86
2024/03/31 12:31:26;;;;;;;403.83;330.47;;;;;23.80;95622.00;;;;5026582;28;20221;-85
2024/03/31 12:34:14;;;;;;;417.37;343.10;;;;;21.90;95620.00;;;;5015115;28;20214;-87
2024/03/31 12:37:02;;;;;;;413.33;341.13;;;;;23.40;95606.00;;;;5015781;28;20292;-86
2024/03/31 12:39:52;;;;;;;418.63;345.90;;;;;22.90;95614.00;;;;5016069;28;20204;-85
2024/03/31 12:42:41;;;;;;;415.70;354.87;;;;;23.50;95568.00;;;;5044437;28;20268;-81
2024/03/31 12:45:28;;;;;;;403.17;360.93;;;;;24.10;95577.00;;;;5017275;28;20493;-83
2024/03/31 12:48:16;;;;;;;408.90;369.83;;;;;23.30;95599.00;;;;5015096;28;20573;-84
2024/03/31 12:51:04;;;;;;;410.43;371.90;;;;;22.30;95629.00;;;;5010162;28;21050;-84
2024/03/31 12:53:53;;;;;;;410.63;372.23;;;;;22.80;95616.00;;;;5019885;28;20200;-85
2024/03/31 12:56:41;;;;;;;403.83;368.03;;;;;21.60;95600.00;;;;5024912;28;20213;-85
2024/03/31 12:59:29;;;;;;;375.80;343.13;;;;;21.50;95601.00;;;;5023028;28;20279;-84
2024/03/31 13:02:16;;;;;;;357.40;330.37;;;;;21.80;95591.00;;;;5028531;28;20724;-83
2024/03/31 13:05:05;;;;;;;353.07;325.63;;;;;21.80;95603.00;;;;5027738;28;20242;-87
2024/03/31 13:07:52;;;;;;;331.73;307.23;;;;;21.60;95607.00;;;;5029150;28;20213;-83
2024/03/31 13:10:42;;;;;;;324.37;300.07;;;;;21.20;95640.00;;;;5020725;28;20239;-86
2024/03/31 13:13:31;;;;;;;324.50;298.67;;;;;20.60;95623.00;;;;5022878;28;20300;-85
2024/03/31 13:16:21;;;;;;;320.93;293.67;;;;;20.70;95647.00;;;;5019618;28;20231;-84
2024/03/31 13:19:08;;;;;;;313.77;284.60;;;;;19.70;95641.00;;;;5023512;28;20215;-86
2024/03/31 13:21:58;;;;;;;296.07;269.50;;;;;19.30;95621.00;;;;5022472;28;20221;-88
2024/03/31 13:24:45;;;;;;;277.87;253.37;;;;;19.90;95631.00;;;;5020708;28;20235;-82